LiveATC.Net - Listen to live air traffic control over the Internet!


ICAO: KBID  IATA: BID   Airport: Block Island State Airport
City: Block Island   State/Province: Rhode Island
Country: United States   Continent: North America
KBID METAR Weather: KBID 181556Z AUTO 05003KT 10SM OVC003 23/23 A2995 RMK AO2 RAE23B43E54 SLP142 P0001 T02330228
KBID Flight Activity (FlightAware)
KBID Airport Info   (iFlightPlanner)
KBID VFR Sectional Chart   (iFlightPlanner) 
KBID IFR Low Chart   (iFlightPlanner) 

KBID CTAF
Feed Status: UP   Listeners: 0
Listen in your browser - HTML5 player (in browser, HTML5)
Click here to listen with your own player (launches your MP3 player)
KBID CTAF Audio Archives
FacilityFrequency
Block Island CTAF123.000

NOTICE

Unauthorized use prohibited. See LiveATC.net Terms of Service


Find LiveATC Audio Streams


Airport/ARTCC Code

Frequency Search
(e.g., 124.400, 128.75)
Site-wide search
 


Browse LiveATC Feeds
Top 50 LiveATC Feeds
LiveATC Feed Map
Bad Weather Areas

LiveATC FAQ
Offer LiveATC feed
Contact LiveATC.net
Press Inquiries

LiveATC on iPhone
LiveATC on Android

Windows Phone
Windows 8/10

LiveATC Mobile
(Mobile browser)

ATC Audio Archives
Interesting Recordings

LiveATC Forums


Home Page
About LiveATC.net
Make a Donation
Terms of Use
Privacy Policy

Canadian Air Freqs

AIRMETs/SIGMETs

FAA Airport Status
Nat'l Airspace Status
Arrival Demand Charts


Server Software By:
Icecast.org
Liquidsoap